sensor_id;sensor_type;location;lat;lon;timestamp;temperature;humidity
16958;DHT22;8595;52.542;11.974;2022-11-18T00:01:45;4.00;99.90
16958;DHT22;8595;52.542;11.974;2022-11-18T00:04:14;3.90;99.90
16958;DHT22;8595;52.542;11.974;2022-11-18T00:06:40;3.90;99.90
16958;DHT22;8595;52.542;11.974;2022-11-18T00:09:07;3.90;99.90
16958;DHT22;8595;52.542;11.974;2022-11-18T00:11:34;4.00;99.90
16958;DHT22;8595;52.542;11.974;2022-11-18T00:14:20;4.00;99.90
16958;DHT22;8595;52.542;11.974;2022-11-18T00:16:50;4.00;99.90
16958;DHT22;8595;52.542;11.974;2022-11-18T00:19:20;3.90;99.90
16958;DHT22;8595;52.542;11.974;2022-11-18T00:21:47;3.80;99.90
16958;DHT22;8595;52.542;11.974;2022-11-18T00:24:14;3.90;99.90
16958;DHT22;8595;52.542;11.974;2022-11-18T00:26:41;3.90;99.90
16958;DHT22;8595;52.542;11.974;2022-11-18T00:29:08;3.80;99.90
16958;DHT22;8595;52.542;11.974;2022-11-18T00:31:36;3.80;99.90
16958;DHT22;8595;52.542;11.974;2022-11-18T00:34:02;3.80;99.90
16958;DHT22;8595;52.542;11.974;2022-11-18T00:36:31;3.60;99.90
16958;DHT22;8595;52.542;11.974;2022-11-18T00:38:57;3.70;99.90
16958;DHT22;8595;52.542;11.974;2022-11-18T00:41:24;3.80;99.90
16958;DHT22;8595;52.542;11.974;2022-11-18T00:44:11;3.80;99.90
16958;DHT22;8595;52.542;11.974;2022-11-18T00:46:37;3.90;99.90
16958;DHT22;8595;52.542;11.974;2022-11-18T00:49:04;3.80;99.90
16958;DHT22;8595;52.542;11.974;2022-11-18T00:51:32;3.90;99.90
16958;DHT22;8595;52.542;11.974;2022-11-18T00:53:59;3.80;99.90
16958;DHT22;8595;52.542;11.974;2022-11-18T00:56:25;3.80;99.90
16958;DHT22;8595;52.542;11.974;2022-11-18T00:58:52;3.80;99.90
16958;DHT22;8595;52.542;11.974;2022-11-18T01:01:19;3.90;99.90
16958;DHT22;8595;52.542;11.974;2022-11-18T01:03:46;3.80;99.90
16958;DHT22;8595;52.542;11.974;2022-11-18T01:06:13;3.70;99.90
16958;DHT22;8595;52.542;11.974;2022-11-18T01:08:41;3.70;99.90
16958;DHT22;8595;52.542;11.974;2022-11-18T01:11:07;3.70;99.90
16958;DHT22;8595;52.542;11.974;2022-11-18T01:13:52;3.70;99.90
16958;DHT22;8595;52.542;11.974;2022-11-18T01:16:21;3.70;99.90
16958;DHT22;8595;52.542;11.974;2022-11-18T01:18:48;3.70;99.90
16958;DHT22;8595;52.542;11.974;2022-11-18T01:21:15;3.80;99.90
16958;DHT22;8595;52.542;11.974;2022-11-18T01:23:43;3.70;99.90
16958;DHT22;8595;52.542;11.974;2022-11-18T01:26:12;3.70;99.90
16958;DHT22;8595;52.542;11.974;2022-11-18T01:28:39;3.60;99.90
16958;DHT22;8595;52.542;11.974;2022-11-18T01:31:08;3.70;99.90
16958;DHT22;8595;52.542;11.974;2022-11-18T01:33:36;3.70;99.90
16958;DHT22;8595;52.542;11.974;2022-11-18T01:36:03;3.70;99.90
16958;DHT22;8595;52.542;11.974;2022-11-18T01:38:31;3.60;99.90
16958;DHT22;8595;52.542;11.974;2022-11-18T01:41:00;3.50;99.90
16958;DHT22;8595;52.542;11.974;2022-11-18T01:43:47;3.60;99.90
16958;DHT22;8595;52.542;11.974;2022-11-18T01:46:14;3.60;99.90
16958;DHT22;8595;52.542;11.974;2022-11-18T01:48:41;3.60;99.90
16958;DHT22;8595;52.542;11.974;2022-11-18T01:51:11;3.60;99.90
16958;DHT22;8595;52.542;11.974;2022-11-18T01:53:42;3.50;99.90
16958;DHT22;8595;52.542;11.974;2022-11-18T01:56:14;3.50;99.90
16958;DHT22;8595;52.542;11.974;2022-11-18T01:58:44;3.40;99.90
16958;DHT22;8595;52.542;11.974;2022-11-18T02:01:12;3.50;99.90
16958;DHT22;8595;52.542;11.974;2022-11-18T02:03:40;3.60;99.90
16958;DHT22;8595;52.542;11.974;2022-11-18T02:06:07;3.60;99.90
16958;DHT22;8595;52.542;11.974;2022-11-18T02:08:35;3.60;99.90
16958;DHT22;8595;52.542;11.974;2022-11-18T02:11:03;3.50;99.90
16958;DHT22;8595;52.542;11.974;2022-11-18T02:13:32;3.50;99.90
16958;DHT22;8595;52.542;11.974;2022-11-18T02:16:04;3.50;99.90
16958;DHT22;8595;52.542;11.974;2022-11-18T02:18:39;3.40;99.90
16958;DHT22;8595;52.542;11.974;2022-11-18T02:21:17;3.40;99.90
16958;DHT22;8595;52.542;11.974;2022-11-18T02:24:19;3.40;99.90
16958;DHT22;8595;52.542;11.974;2022-11-18T02:27:12;3.50;99.90
16958;DHT22;8595;52.542;11.974;2022-11-18T02:29:51;3.50;99.90
16958;DHT22;8595;52.542;11.974;2022-11-18T02:32:24;3.40;99.90
16958;DHT22;8595;52.542;11.974;2022-11-18T02:34:56;3.50;99.90
16958;DHT22;8595;52.542;11.974;2022-11-18T02:37:30;3.40;99.90
16958;DHT22;8595;52.542;11.974;2022-11-18T02:40:02;3.40;99.90
16958;DHT22;8595;52.542;11.974;2022-11-18T02:42:32;3.50;99.90
16958;DHT22;8595;52.542;11.974;2022-11-18T02:45:05;3.40;99.90
16958;DHT22;8595;52.542;11.974;2022-11-18T02:47:35;3.40;99.90
16958;DHT22;8595;52.542;11.974;2022-11-18T02:50:05;3.50;99.90
16958;DHT22;8595;52.542;11.974;2022-11-18T02:52:35;3.40;99.90
16958;DHT22;8595;52.542;11.974;2022-11-18T02:55:05;3.40;99.90
16958;DHT22;8595;52.542;11.974;2022-11-18T02:57:33;3.50;99.90
16958;DHT22;8595;52.542;11.974;2022-11-18T03:00:03;3.50;99.90
16958;DHT22;8595;52.542;11.974;2022-11-18T03:02:39;3.60;99.90
16958;DHT22;8595;52.542;11.974;2022-11-18T03:05:12;3.50;99.90
16958;DHT22;8595;52.542;11.974;2022-11-18T03:07:43;3.50;99.90
16958;DHT22;8595;52.542;11.974;2022-11-18T03:10:11;3.40;99.90
16958;DHT22;8595;52.542;11.974;2022-11-18T03:12:43;3.30;99.90
16958;DHT22;8595;52.542;11.974;2022-11-18T03:15:19;3.20;99.90
16958;DHT22;8595;52.542;11.974;2022-11-18T03:17:57;3.20;99.90
16958;DHT22;8595;52.542;11.974;2022-11-18T03:20:28;3.40;99.90
16958;DHT22;8595;52.542;11.974;2022-11-18T03:22:59;3.40;99.90
16958;DHT22;8595;52.542;11.974;2022-11-18T03:25:35;3.30;99.90
16958;DHT22;8595;52.542;11.974;2022-11-18T03:28:09;3.30;99.90
16958;DHT22;8595;52.542;11.974;2022-11-18T03:30:44;3.20;99.90
16958;DHT22;8595;52.542;11.974;2022-11-18T03:33:16;3.10;99.90
16958;DHT22;8595;52.542;11.974;2022-11-18T03:35:48;3.00;99.90
16958;DHT22;8595;52.542;11.974;2022-11-18T03:38:21;3.00;99.90
16958;DHT22;8595;52.542;11.974;2022-11-18T03:40:54;3.20;99.90
16958;DHT22;8595;52.542;11.974;2022-11-18T03:43:26;3.20;99.90
16958;DHT22;8595;52.542;11.974;2022-11-18T03:46:00;3.20;99.90
16958;DHT22;8595;52.542;11.974;2022-11-18T03:48:32;3.20;99.90
16958;DHT22;8595;52.542;11.974;2022-11-18T03:51:05;3.00;99.90
16958;DHT22;8595;52.542;11.974;2022-11-18T03:53:36;3.20;99.90
16958;DHT22;8595;52.542;11.974;2022-11-18T03:56:08;3.00;99.90
16958;DHT22;8595;52.542;11.974;2022-11-18T03:58:40;2.90;99.90
16958;DHT22;8595;52.542;11.974;2022-11-18T04:01:13;2.90;99.90
16958;DHT22;8595;52.542;11.974;2022-11-18T04:03:43;2.80;99.90
16958;DHT22;8595;52.542;11.974;2022-11-18T04:06:18;2.80;99.90
16958;DHT22;8595;52.542;11.974;2022-11-18T04:08:49;2.90;99.90
16958;DHT22;8595;52.542;11.974;2022-11-18T04:11:23;3.00;99.90
16958;DHT22;8595;52.542;11.974;2022-11-18T04:14:12;3.00;99.90
16958;DHT22;8595;52.542;11.974;2022-11-18T04:16:42;3.10;99.90
16958;DHT22;8595;52.542;11.974;2022-11-18T04:19:09;2.90;99.90
16958;DHT22;8595;52.542;11.974;2022-11-18T04:21:36;2.80;99.90
16958;DHT22;8595;52.542;11.974;2022-11-18T04:24:03;2.70;99.90
16958;DHT22;8595;52.542;11.974;2022-11-18T04:26:30;2.60;99.90
16958;DHT22;8595;52.542;11.974;2022-11-18T04:28:57;2.60;99.90
16958;DHT22;8595;52.542;11.974;2022-11-18T04:31:24;2.60;99.90
16958;DHT22;8595;52.542;11.974;2022-11-18T04:33:52;2.50;99.90
16958;DHT22;8595;52.542;11.974;2022-11-18T04:36:18;2.50;99.90
16958;DHT22;8595;52.542;11.974;2022-11-18T04:38:45;2.50;99.90
16958;DHT22;8595;52.542;11.974;2022-11-18T04:41:12;2.60;99.90
16958;DHT22;8595;52.542;11.974;2022-11-18T04:43:39;2.70;99.90
16958;DHT22;8595;52.542;11.974;2022-11-18T04:46:06;2.70;99.90
16958;DHT22;8595;52.542;11.974;2022-11-18T04:48:33;2.70;99.90
16958;DHT22;8595;52.542;11.974;2022-11-18T04:51:03;2.60;99.90
16958;DHT22;8595;52.542;11.974;2022-11-18T04:53:30;2.70;99.90
16958;DHT22;8595;52.542;11.974;2022-11-18T04:56:03;2.70;99.90
16958;DHT22;8595;52.542;11.974;2022-11-18T04:58:31;2.70;99.90
16958;DHT22;8595;52.542;11.974;2022-11-18T05:00:58;2.70;99.90
16958;DHT22;8595;52.542;11.974;2022-11-18T05:03:24;2.70;99.90
16958;DHT22;8595;52.542;11.974;2022-11-18T05:05:51;2.70;99.90
16958;DHT22;8595;52.542;11.974;2022-11-18T05:08:19;2.70;99.90
16958;DHT22;8595;52.542;11.974;2022-11-18T05:10:46;2.70;99.90
16958;DHT22;8595;52.542;11.974;2022-11-18T05:13:13;2.70;99.90
16958;DHT22;8595;52.542;11.974;2022-11-18T05:15:38;2.70;99.90
16958;DHT22;8595;52.542;11.974;2022-11-18T05:18:05;2.60;99.90
16958;DHT22;8595;52.542;11.974;2022-11-18T05:20:32;2.60;99.90
16958;DHT22;8595;52.542;11.974;2022-11-18T05:22:58;2.50;99.90
16958;DHT22;8595;52.542;11.974;2022-11-18T05:25:26;2.50;99.90
16958;DHT22;8595;52.542;11.974;2022-11-18T05:27:53;2.50;99.90
16958;DHT22;8595;52.542;11.974;2022-11-18T05:30:20;2.40;99.90
16958;DHT22;8595;52.542;11.974;2022-11-18T05:32:47;2.30;99.90
16958;DHT22;8595;52.542;11.974;2022-11-18T05:35:13;2.30;99.90
16958;DHT22;8595;52.542;11.974;2022-11-18T05:37:40;2.30;99.90
16958;DHT22;8595;52.542;11.974;2022-11-18T05:40:08;2.40;99.90
16958;DHT22;8595;52.542;11.974;2022-11-18T05:42:37;2.30;99.90
16958;DHT22;8595;52.542;11.974;2022-11-18T05:45:21;2.20;99.90
16958;DHT22;8595;52.542;11.974;2022-11-18T05:47:48;2.20;99.90
16958;DHT22;8595;52.542;11.974;2022-11-18T05:50:28;2.10;99.90
16958;DHT22;8595;52.542;11.974;2022-11-18T05:52:55;2.10;99.90
16958;DHT22;8595;52.542;11.974;2022-11-18T05:55:24;2.20;99.90
16958;DHT22;8595;52.542;11.974;2022-11-18T05:57:54;2.20;99.90
16958;DHT22;8595;52.542;11.974;2022-11-18T06:00:21;2.30;99.90
16958;DHT22;8595;52.542;11.974;2022-11-18T06:02:49;2.20;99.90
16958;DHT22;8595;52.542;11.974;2022-11-18T06:05:18;2.30;99.90
16958;DHT22;8595;52.542;11.974;2022-11-18T06:07:46;2.30;99.90
16958;DHT22;8595;52.542;11.974;2022-11-18T06:10:16;2.30;99.90
16958;DHT22;8595;52.542;11.974;2022-11-18T06:12:46;2.20;99.90
16958;DHT22;8595;52.542;11.974;2022-11-18T06:15:17;2.30;99.90
16958;DHT22;8595;52.542;11.974;2022-11-18T06:17:48;2.30;99.90
16958;DHT22;8595;52.542;11.974;2022-11-18T06:20:17;2.20;99.90
16958;DHT22;8595;52.542;11.974;2022-11-18T06:22:44;2.10;99.90
16958;DHT22;8595;52.542;11.974;2022-11-18T06:25:11;2.10;99.90
16958;DHT22;8595;52.542;11.974;2022-11-18T06:27:38;2.20;99.90
16958;DHT22;8595;52.542;11.974;2022-11-18T06:30:06;2.10;99.90
16958;DHT22;8595;52.542;11.974;2022-11-18T06:32:34;2.10;99.90
16958;DHT22;8595;52.542;11.974;2022-11-18T06:35:00;2.10;99.90
16958;DHT22;8595;52.542;11.974;2022-11-18T06:37:27;2.10;99.90
16958;DHT22;8595;52.542;11.974;2022-11-18T06:39:54;2.00;99.90
16958;DHT22;8595;52.542;11.974;2022-11-18T06:42:21;2.00;99.90
16958;DHT22;8595;52.542;11.974;2022-11-18T06:45:05;2.10;99.90
16958;DHT22;8595;52.542;11.974;2022-11-18T06:47:34;2.00;99.90
16958;DHT22;8595;52.542;11.974;2022-11-18T06:50:00;2.20;99.90
16958;DHT22;8595;52.542;11.974;2022-11-18T06:52:27;2.30;99.90
16958;DHT22;8595;52.542;11.974;2022-11-18T06:54:54;2.30;99.90
16958;DHT22;8595;52.542;11.974;2022-11-18T06:57:21;2.30;99.90
16958;DHT22;8595;52.542;11.974;2022-11-18T06:59:47;2.20;99.90
16958;DHT22;8595;52.542;11.974;2022-11-18T07:02:14;2.20;99.90
16958;DHT22;8595;52.542;11.974;2022-11-18T07:04:44;2.30;99.90
16958;DHT22;8595;52.542;11.974;2022-11-18T07:07:11;2.20;99.90
16958;DHT22;8595;52.542;11.974;2022-11-18T07:09:38;2.10;99.90
16958;DHT22;8595;52.542;11.974;2022-11-18T07:12:05;2.00;99.90
16958;DHT22;8595;52.542;11.974;2022-11-18T07:14:31;2.10;99.90
16958;DHT22;8595;52.542;11.974;2022-11-18T07:16:58;2.00;99.90
16958;DHT22;8595;52.542;11.974;2022-11-18T07:19:25;2.00;99.90
16958;DHT22;8595;52.542;11.974;2022-11-18T07:21:53;2.00;99.90
16958;DHT22;8595;52.542;11.974;2022-11-18T07:24:24;1.90;99.90
16958;DHT22;8595;52.542;11.974;2022-11-18T07:26:52;2.00;99.90
16958;DHT22;8595;52.542;11.974;2022-11-18T07:29:19;1.80;99.90
16958;DHT22;8595;52.542;11.974;2022-11-18T07:31:45;2.00;99.90
16958;DHT22;8595;52.542;11.974;2022-11-18T07:34:12;2.00;99.90
16958;DHT22;8595;52.542;11.974;2022-11-18T07:36:39;2.00;99.90
16958;DHT22;8595;52.542;11.974;2022-11-18T07:39:07;1.90;99.90
16958;DHT22;8595;52.542;11.974;2022-11-18T07:41:35;1.90;99.90
16958;DHT22;8595;52.542;11.974;2022-11-18T07:44:03;1.90;99.90
16958;DHT22;8595;52.542;11.974;2022-11-18T07:46:33;2.00;99.90
16958;DHT22;8595;52.542;11.974;2022-11-18T07:49:02;1.90;99.90
16958;DHT22;8595;52.542;11.974;2022-11-18T07:51:31;2.00;99.90
16958;DHT22;8595;52.542;11.974;2022-11-18T07:53:59;2.00;99.90
16958;DHT22;8595;52.542;11.974;2022-11-18T07:56:27;2.00;99.90
16958;DHT22;8595;52.542;11.974;2022-11-18T07:58:54;1.90;99.90
16958;DHT22;8595;52.542;11.974;2022-11-18T08:01:22;1.90;99.90
16958;DHT22;8595;52.542;11.974;2022-11-18T08:03:50;1.90;99.90
16958;DHT22;8595;52.542;11.974;2022-11-18T08:06:17;1.90;99.90
16958;DHT22;8595;52.542;11.974;2022-11-18T08:08:45;2.10;99.90
16958;DHT22;8595;52.542;11.974;2022-11-18T08:11:16;1.90;99.90
16958;DHT22;8595;52.542;11.974;2022-11-18T08:13:44;1.90;99.90
16958;DHT22;8595;52.542;11.974;2022-11-18T08:16:12;2.00;99.90
16958;DHT22;8595;52.542;11.974;2022-11-18T08:18:40;2.20;99.90
16958;DHT22;8595;52.542;11.974;2022-11-18T08:21:06;2.20;99.90
16958;DHT22;8595;52.542;11.974;2022-11-18T08:23:33;2.20;99.90
16958;DHT22;8595;52.542;11.974;2022-11-18T08:26:04;2.10;99.90
16958;DHT22;8595;52.542;11.974;2022-11-18T08:28:32;2.10;99.90
16958;DHT22;8595;52.542;11.974;2022-11-18T08:31:08;1.90;99.90
16958;DHT22;8595;52.542;11.974;2022-11-18T08:33:35;2.00;99.90
16958;DHT22;8595;52.542;11.974;2022-11-18T08:36:05;2.20;99.90
16958;DHT22;8595;52.542;11.974;2022-11-18T08:38:32;2.10;99.90
16958;DHT22;8595;52.542;11.974;2022-11-18T08:40:59;2.10;99.90
16958;DHT22;8595;52.542;11.974;2022-11-18T08:43:26;2.20;99.90
16958;DHT22;8595;52.542;11.974;2022-11-18T08:45:52;2.20;99.90
16958;DHT22;8595;52.542;11.974;2022-11-18T08:48:20;2.10;99.90
16958;DHT22;8595;52.542;11.974;2022-11-18T08:50:47;2.40;99.90
16958;DHT22;8595;52.542;11.974;2022-11-18T08:53:14;2.30;99.90
16958;DHT22;8595;52.542;11.974;2022-11-18T08:55:41;2.30;99.90
16958;DHT22;8595;52.542;11.974;2022-11-18T08:58:08;2.20;99.90
16958;DHT22;8595;52.542;11.974;2022-11-18T09:00:34;2.10;99.90
16958;DHT22;8595;52.542;11.974;2022-11-18T09:03:01;2.10;99.90
16958;DHT22;8595;52.542;11.974;2022-11-18T09:05:29;2.00;99.90
16958;DHT22;8595;52.542;11.974;2022-11-18T09:07:56;1.80;99.90
16958;DHT22;8595;52.542;11.974;2022-11-18T09:10:23;1.90;99.90
16958;DHT22;8595;52.542;11.974;2022-11-18T09:12:50;1.80;99.90
16958;DHT22;8595;52.542;11.974;2022-11-18T09:15:16;1.80;99.90
16958;DHT22;8595;52.542;11.974;2022-11-18T09:17:43;1.90;99.90
16958;DHT22;8595;52.542;11.974;2022-11-18T09:20:10;2.00;99.90
16958;DHT22;8595;52.542;11.974;2022-11-18T09:22:38;2.20;99.90
16958;DHT22;8595;52.542;11.974;2022-11-18T09:25:06;2.30;99.90
16958;DHT22;8595;52.542;11.974;2022-11-18T09:27:33;2.30;99.90
16958;DHT22;8595;52.542;11.974;2022-11-18T09:29:59;2.30;99.90
16958;DHT22;8595;52.542;11.974;2022-11-18T09:32:26;2.20;99.90
16958;DHT22;8595;52.542;11.974;2022-11-18T09:34:53;2.20;99.90
16958;DHT22;8595;52.542;11.974;2022-11-18T09:37:20;2.20;99.90
16958;DHT22;8595;52.542;11.974;2022-11-18T09:39:49;2.30;99.90
16958;DHT22;8595;52.542;11.974;2022-11-18T09:42:30;2.20;99.90
16958;DHT22;8595;52.542;11.974;2022-11-18T09:45:09;2.20;99.90
16958;DHT22;8595;52.542;11.974;2022-11-18T09:47:38;2.20;99.90
16958;DHT22;8595;52.542;11.974;2022-11-18T09:50:09;2.20;99.90
16958;DHT22;8595;52.542;11.974;2022-11-18T09:52:41;2.00;99.90
16958;DHT22;8595;52.542;11.974;2022-11-18T09:55:13;2.10;99.90
16958;DHT22;8595;52.542;11.974;2022-11-18T09:57:43;2.10;99.90
16958;DHT22;8595;52.542;11.974;2022-11-18T10:00:15;2.20;99.90
16958;DHT22;8595;52.542;11.974;2022-11-18T10:02:51;2.20;99.90
16958;DHT22;8595;52.542;11.974;2022-11-18T10:05:22;2.00;99.90
16958;DHT22;8595;52.542;11.974;2022-11-18T10:07:58;2.10;99.90
16958;DHT22;8595;52.542;11.974;2022-11-18T10:10:37;2.30;99.90
16958;DHT22;8595;52.542;11.974;2022-11-18T10:13:12;2.40;99.90
16958;DHT22;8595;52.542;11.974;2022-11-18T10:15:49;2.50;99.90
16958;DHT22;8595;52.542;11.974;2022-11-18T10:18:23;2.50;99.90
16958;DHT22;8595;52.542;11.974;2022-11-18T10:20:55;2.50;99.90
16958;DHT22;8595;52.542;11.974;2022-11-18T10:23:28;2.50;99.90
16958;DHT22;8595;52.542;11.974;2022-11-18T10:25:57;2.40;99.90
16958;DHT22;8595;52.542;11.974;2022-11-18T10:28:25;2.20;99.90
16958;DHT22;8595;52.542;11.974;2022-11-18T10:31:01;2.20;99.90
16958;DHT22;8595;52.542;11.974;2022-11-18T10:33:28;2.30;99.90
16958;DHT22;8595;52.542;11.974;2022-11-18T10:36:10;2.30;99.90
16958;DHT22;8595;52.542;11.974;2022-11-18T10:38:38;2.30;99.90
16958;DHT22;8595;52.542;11.974;2022-11-18T10:41:09;2.20;99.90
16958;DHT22;8595;52.542;11.974;2022-11-18T10:43:46;2.30;99.90
16958;DHT22;8595;52.542;11.974;2022-11-18T10:46:23;2.30;99.90
16958;DHT22;8595;52.542;11.974;2022-11-18T10:49:18;2.30;99.90
16958;DHT22;8595;52.542;11.974;2022-11-18T10:51:47;2.40;99.90
16958;DHT22;8595;52.542;11.974;2022-11-18T10:54:15;2.40;99.90
16958;DHT22;8595;52.542;11.974;2022-11-18T10:56:47;2.50;99.90
16958;DHT22;8595;52.542;11.974;2022-11-18T10:59:23;2.40;99.90
16958;DHT22;8595;52.542;11.974;2022-11-18T11:01:59;2.40;99.90
16958;DHT22;8595;52.542;11.974;2022-11-18T11:04:27;2.30;99.90
16958;DHT22;8595;52.542;11.974;2022-11-18T11:06:56;2.20;99.90
16958;DHT22;8595;52.542;11.974;2022-11-18T11:09:28;2.20;99.90
16958;DHT22;8595;52.542;11.974;2022-11-18T11:11:59;2.00;99.90
16958;DHT22;8595;52.542;11.974;2022-11-18T11:14:31;2.10;99.90
16958;DHT22;8595;52.542;11.974;2022-11-18T11:17:07;2.10;99.90
16958;DHT22;8595;52.542;11.974;2022-11-18T11:19:43;2.20;99.90
16958;DHT22;8595;52.542;11.974;2022-11-18T11:22:11;2.20;99.90
16958;DHT22;8595;52.542;11.974;2022-11-18T11:24:38;2.20;99.90
16958;DHT22;8595;52.542;11.974;2022-11-18T11:27:16;2.10;99.90
16958;DHT22;8595;52.542;11.974;2022-11-18T11:30:06;2.20;99.90
16958;DHT22;8595;52.542;11.974;2022-11-18T11:32:49;2.30;99.90
16958;DHT22;8595;52.542;11.974;2022-11-18T11:35:22;2.30;99.90
16958;DHT22;8595;52.542;11.974;2022-11-18T11:37:53;2.30;99.90
16958;DHT22;8595;52.542;11.974;2022-11-18T11:40:29;2.30;99.90
16958;DHT22;8595;52.542;11.974;2022-11-18T11:43:22;2.50;99.90
16958;DHT22;8595;52.542;11.974;2022-11-18T11:46:06;2.40;99.90
16958;DHT22;8595;52.542;11.974;2022-11-18T11:48:45;2.40;99.90
16958;DHT22;8595;52.542;11.974;2022-11-18T11:51:21;2.40;99.90
16958;DHT22;8595;52.542;11.974;2022-11-18T11:54:14;2.50;99.90
16958;DHT22;8595;52.542;11.974;2022-11-18T11:56:50;2.50;99.90
16958;DHT22;8595;52.542;11.974;2022-11-18T11:59:27;2.40;99.90
16958;DHT22;8595;52.542;11.974;2022-11-18T12:02:14;2.30;99.90
16958;DHT22;8595;52.542;11.974;2022-11-18T12:04:46;2.20;99.90
16958;DHT22;8595;52.542;11.974;2022-11-18T12:07:18;2.00;99.90
16958;DHT22;8595;52.542;11.974;2022-11-18T12:10:04;2.20;99.90
16958;DHT22;8595;52.542;11.974;2022-11-18T12:12:40;2.10;99.90
16958;DHT22;8595;52.542;11.974;2022-11-18T12:15:27;1.90;99.90
16958;DHT22;8595;52.542;11.974;2022-11-18T12:18:04;1.90;99.90
16958;DHT22;8595;52.542;11.974;2022-11-18T12:20:42;2.10;99.90
16958;DHT22;8595;52.542;11.974;2022-11-18T12:23:15;2.10;99.90
16958;DHT22;8595;52.542;11.974;2022-11-18T12:26:01;1.90;99.90
16958;DHT22;8595;52.542;11.974;2022-11-18T12:28:30;2.10;99.90
16958;DHT22;8595;52.542;11.974;2022-11-18T12:31:33;2.00;99.90
16958;DHT22;8595;52.542;11.974;2022-11-18T12:40:00;2.00;99.90
16958;DHT22;8595;52.542;11.974;2022-11-18T12:42:39;2.10;99.90
16958;DHT22;8595;52.542;11.974;2022-11-18T12:45:57;2.10;99.90
16958;DHT22;8595;52.542;11.974;2022-11-18T12:48:43;2.20;99.90
16958;DHT22;8595;52.542;11.974;2022-11-18T12:51:43;2.10;99.90
16958;DHT22;8595;52.542;11.974;2022-11-18T12:54:24;2.00;99.90
16958;DHT22;8595;52.542;11.974;2022-11-18T12:56:52;2.00;99.90
16958;DHT22;8595;52.542;11.974;2022-11-18T12:59:25;2.00;99.90
16958;DHT22;8595;52.542;11.974;2022-11-18T13:02:04;2.10;99.90
16958;DHT22;8595;52.542;11.974;2022-11-18T13:04:33;2.20;99.90
16958;DHT22;8595;52.542;11.974;2022-11-18T13:07:01;2.20;99.90
16958;DHT22;8595;52.542;11.974;2022-11-18T13:09:32;2.10;99.90
16958;DHT22;8595;52.542;11.974;2022-11-18T13:12:01;2.10;99.90
16958;DHT22;8595;52.542;11.974;2022-11-18T13:14:31;2.10;99.90
16958;DHT22;8595;52.542;11.974;2022-11-18T13:17:28;2.20;99.90
16958;DHT22;8595;52.542;11.974;2022-11-18T13:20:23;2.30;99.90
16958;DHT22;8595;52.542;11.974;2022-11-18T13:22:53;2.30;99.90
16958;DHT22;8595;52.542;11.974;2022-11-18T13:25:38;2.30;99.90
16958;DHT22;8595;52.542;11.974;2022-11-18T13:28:16;2.30;99.90
16958;DHT22;8595;52.542;11.974;2022-11-18T13:30:49;2.40;99.90
16958;DHT22;8595;52.542;11.974;2022-11-18T13:33:17;2.30;99.90
16958;DHT22;8595;52.542;11.974;2022-11-18T13:35:46;2.30;99.90
16958;DHT22;8595;52.542;11.974;2022-11-18T13:38:20;2.10;99.90
16958;DHT22;8595;52.542;11.974;2022-11-18T13:40:47;2.00;99.90
16958;DHT22;8595;52.542;11.974;2022-11-18T13:43:28;2.10;99.90
16958;DHT22;8595;52.542;11.974;2022-11-18T13:45:56;2.40;99.90
16958;DHT22;8595;52.542;11.974;2022-11-18T13:48:23;2.30;99.90
16958;DHT22;8595;52.542;11.974;2022-11-18T13:50:53;2.30;99.90
16958;DHT22;8595;52.542;11.974;2022-11-18T13:53:27;2.40;99.90
16958;DHT22;8595;52.542;11.974;2022-11-18T13:55:57;2.40;99.90
16958;DHT22;8595;52.542;11.974;2022-11-18T13:58:36;2.40;99.90
16958;DHT22;8595;52.542;11.974;2022-11-18T14:01:05;2.30;99.90
16958;DHT22;8595;52.542;11.974;2022-11-18T14:03:35;2.30;99.90
16958;DHT22;8595;52.542;11.974;2022-11-18T14:06:08;2.20;99.90
16958;DHT22;8595;52.542;11.974;2022-11-18T14:08:37;2.10;99.90
16958;DHT22;8595;52.542;11.974;2022-11-18T14:11:05;2.20;99.90
16958;DHT22;8595;52.542;11.974;2022-11-18T14:13:34;2.30;99.90
16958;DHT22;8595;52.542;11.974;2022-11-18T14:16:23;2.20;99.90
16958;DHT22;8595;52.542;11.974;2022-11-18T14:18:51;2.10;99.90
16958;DHT22;8595;52.542;11.974;2022-11-18T14:21:26;2.10;99.90
16958;DHT22;8595;52.542;11.974;2022-11-18T14:23:52;2.10;99.90
16958;DHT22;8595;52.542;11.974;2022-11-18T14:26:26;2.10;99.90
16958;DHT22;8595;52.542;11.974;2022-11-18T14:28:55;2.20;99.90
16958;DHT22;8595;52.542;11.974;2022-11-18T14:31:24;2.20;99.90
16958;DHT22;8595;52.542;11.974;2022-11-18T14:34:14;2.20;99.90
16958;DHT22;8595;52.542;11.974;2022-11-18T14:36:42;2.20;99.90
16958;DHT22;8595;52.542;11.974;2022-11-18T14:39:12;2.20;99.90
16958;DHT22;8595;52.542;11.974;2022-11-18T14:41:39;2.20;99.90
16958;DHT22;8595;52.542;11.974;2022-11-18T14:44:15;2.10;99.90
16958;DHT22;8595;52.542;11.974;2022-11-18T14:46:43;2.10;99.90
16958;DHT22;8595;52.542;11.974;2022-11-18T14:49:14;2.10;99.90
16958;DHT22;8595;52.542;11.974;2022-11-18T14:51:42;2.10;99.90
16958;DHT22;8595;52.542;11.974;2022-11-18T14:54:11;2.00;99.90
16958;DHT22;8595;52.542;11.974;2022-11-18T14:56:39;1.90;99.90
16958;DHT22;8595;52.542;11.974;2022-11-18T14:59:08;1.80;99.90
16958;DHT22;8595;52.542;11.974;2022-11-18T15:01:35;1.80;99.90
16958;DHT22;8595;52.542;11.974;2022-11-18T15:04:02;1.70;99.90
16958;DHT22;8595;52.542;11.974;2022-11-18T15:06:30;1.60;99.90
16958;DHT22;8595;52.542;11.974;2022-11-18T15:08:57;1.60;99.90
16958;DHT22;8595;52.542;11.974;2022-11-18T15:11:24;1.60;99.90
16958;DHT22;8595;52.542;11.974;2022-11-18T15:13:51;1.60;99.90
16958;DHT22;8595;52.542;11.974;2022-11-18T15:16:19;1.50;99.90
16958;DHT22;8595;52.542;11.974;2022-11-18T15:18:48;1.30;99.90
16958;DHT22;8595;52.542;11.974;2022-11-18T15:21:15;1.30;99.90
16958;DHT22;8595;52.542;11.974;2022-11-18T15:23:43;1.40;99.90
16958;DHT22;8595;52.542;11.974;2022-11-18T15:26:16;1.50;99.90
16958;DHT22;8595;52.542;11.974;2022-11-18T15:28:43;1.50;99.90
16958;DHT22;8595;52.542;11.974;2022-11-18T15:31:10;1.50;99.90
16958;DHT22;8595;52.542;11.974;2022-11-18T15:33:37;1.40;99.90
16958;DHT22;8595;52.542;11.974;2022-11-18T15:36:09;1.30;99.90
16958;DHT22;8595;52.542;11.974;2022-11-18T15:38:37;1.40;99.90
16958;DHT22;8595;52.542;11.974;2022-11-18T15:41:05;1.40;99.90
16958;DHT22;8595;52.542;11.974;2022-11-18T15:43:32;1.30;99.90
16958;DHT22;8595;52.542;11.974;2022-11-18T15:45:59;1.40;99.90
16958;DHT22;8595;52.542;11.974;2022-11-18T15:48:25;1.50;99.90
16958;DHT22;8595;52.542;11.974;2022-11-18T15:50:52;1.50;99.90
16958;DHT22;8595;52.542;11.974;2022-11-18T15:53:19;1.40;99.90
16958;DHT22;8595;52.542;11.974;2022-11-18T15:55:45;1.30;99.90
16958;DHT22;8595;52.542;11.974;2022-11-18T15:58:14;1.50;99.90
16958;DHT22;8595;52.542;11.974;2022-11-18T16:00:40;1.40;99.90
16958;DHT22;8595;52.542;11.974;2022-11-18T16:03:08;1.40;99.90
16958;DHT22;8595;52.542;11.974;2022-11-18T16:05:36;1.30;99.90
16958;DHT22;8595;52.542;11.974;2022-11-18T16:08:02;1.30;99.90
16958;DHT22;8595;52.542;11.974;2022-11-18T16:10:29;1.20;99.90
16958;DHT22;8595;52.542;11.974;2022-11-18T16:13:19;1.20;99.90
16958;DHT22;8595;52.542;11.974;2022-11-18T16:15:46;1.30;99.90